Milhostov, Slovakia

12:02 PM CEST on October 20, 2014 (GMT +0200)
Markovce MS2 | Change Station
CLOSE
Current Station
Personal Weather Station
Location: Markovce, KOšICKý KRAJ
Elevation: 384 ft
Nearby Weather Stations

Elev 384 ft 48.59 °N, 21.84 °E | Updated 1 minute ago

Mostly Cloudy
Mostly Cloudy
57.8 °F
Feels Like 57.8 °F
N
9.0
Wind Variable Wind from SE
Gusts 16.0 mph

Today
High -- | Low -- °F
--% Chance of Precip.
Yesterday
High -- | Low -- °F
Precip. -- in
7:00 AM 5:34 PM
Waning Crescent, 12% visible
Pressure 30.04 in
Visibility 6.2 miles
Clouds Mostly Cloudy 1300 ft
Dew Point 54 °F
Humidity 86%
Rainfall 0.00 in
Snow Depth Not available.
UV 2.2 out of 12
Pollen Not available.
Air Quality Not available.
Flu Activity Not available.
METAR LZKZ 201000Z 17006KT 9999 BKN013 13/11 Q1017 NOSIG

More Conditions Fewer Conditions

Pressure 30.04 in
Visibility 6.2 miles
Clouds Mostly Cloudy 1300 ft
Dew Point 54 °F
Humidity 86%
Rainfall 0.00 in
Snow Depth Not available.
UV 2.2 out of 12
Pollen Not available.
Air Quality Not available.
Flu Activity Not available.
METAR LZKZ 201000Z 17006KT 9999 BKN013 13/11 Q1017 NOSIG

More Conditions Fewer Conditions

10-Day Weather Forecast

Almanac

Astronomy

Oct. 20, 2014 Rise Set
Actual Time 7:00 AM CEST 5:34 PM CEST
Civil Twilight 6:28 AM CEST 6:06 PM CEST
Nautical Twilight 5:51 AM CEST 6:43 PM CEST
Astronomical Twilight 5:15 AM CEST 7:19 PM CEST
Moon 3:15 AM CEST 4:01 PM CEST
Length of Visible Light 11h 38m
Length of Day
10h 34m
Tomorrow will be 3m 24s shorter.
Waning Crescent, 12% of the Moon is Illuminated
Today
Waning Crescent
Oct 23
New
Oct 30
First Quarter
Nov 6
Full
Nov 14
Last Quarter

Yesterday's Extremes

Country Highs Country Lows

Community

WunderPhotos

Upload Photos

1,763,326 photos uploaded!

Nearby

Snow Depth

Not available.

Earthquake Activity

City Distance Mag. Time & Date
No recent earthquake activity has been reported nearby.
Minimum magnitude displayed is 2.5.

Coastal Water Temperatures

Place Temperature
No Stations Reporting

Nearby Weather Stations